sensor_id;sensor_type;location;lat;lon;timestamp;temperature;humidity
46492;DHT22;32206;51.446;6.792;2022-10-12T00:01:15;9.20;14.90
46492;DHT22;32206;51.446;6.792;2022-10-12T00:03:41;9.30;15.60
46492;DHT22;32206;51.446;6.792;2022-10-12T00:06:11;9.10;18.00
46492;DHT22;32206;51.446;6.792;2022-10-12T00:08:38;9.10;21.40
46492;DHT22;32206;51.446;6.792;2022-10-12T00:11:05;9.10;21.10
46492;DHT22;32206;51.446;6.792;2022-10-12T00:13:32;9.00;12.40
46492;DHT22;32206;51.446;6.792;2022-10-12T00:16:04;9.20;7.60
46492;DHT22;32206;51.446;6.792;2022-10-12T00:18:31;8.90;10.90
46492;DHT22;32206;51.446;6.792;2022-10-12T00:21:16;8.90;16.90
46492;DHT22;32206;51.446;6.792;2022-10-12T00:23:42;8.90;20.10
46492;DHT22;32206;51.446;6.792;2022-10-12T00:26:20;8.90;10.00
46492;DHT22;32206;51.446;6.792;2022-10-12T00:28:46;8.90;6.70
46492;DHT22;32206;51.446;6.792;2022-10-12T00:31:18;8.80;8.40
46492;DHT22;32206;51.446;6.792;2022-10-12T00:33:45;8.80;10.90
46492;DHT22;32206;51.446;6.792;2022-10-12T00:36:17;9.00;11.40
46492;DHT22;32206;51.446;6.792;2022-10-12T00:38:43;8.70;17.60
46492;DHT22;32206;51.446;6.792;2022-10-12T00:41:10;9.00;20.30
46492;DHT22;32206;51.446;6.792;2022-10-12T00:43:38;8.80;24.70
46492;DHT22;32206;51.446;6.792;2022-10-12T00:46:15;8.80;28.60
46492;DHT22;32206;51.446;6.792;2022-10-12T00:48:43;8.80;33.20
46492;DHT22;32206;51.446;6.792;2022-10-12T00:51:09;8.80;32.50
46492;DHT22;32206;51.446;6.792;2022-10-12T00:53:42;8.80;31.40
46492;DHT22;32206;51.446;6.792;2022-10-12T00:56:13;8.70;27.40
46492;DHT22;32206;51.446;6.792;2022-10-12T00:58:40;9.40;16.40
46492;DHT22;32206;51.446;6.792;2022-10-12T01:01:06;8.80;14.50
46492;DHT22;32206;51.446;6.792;2022-10-12T01:03:33;8.90;14.80
46492;DHT22;32206;51.446;6.792;2022-10-12T01:05:59;8.70;18.20
46492;DHT22;32206;51.446;6.792;2022-10-12T01:08:25;8.80;23.80
46492;DHT22;32206;51.446;6.792;2022-10-12T01:10:52;8.90;24.00
46492;DHT22;32206;51.446;6.792;2022-10-12T01:13:18;8.70;25.40
46492;DHT22;32206;51.446;6.792;2022-10-12T01:16:04;8.70;30.10
46492;DHT22;32206;51.446;6.792;2022-10-12T01:21:39;8.60;31.10
46492;DHT22;32206;51.446;6.792;2022-10-12T01:32:23;8.60;24.70
46492;DHT22;32206;51.446;6.792;2022-10-12T01:35:26;8.50;25.30
46492;DHT22;32206;51.446;6.792;2022-10-12T01:40:58;8.50;40.20
46492;DHT22;32206;51.446;6.792;2022-10-12T01:43:35;8.50;38.10
46492;DHT22;32206;51.446;6.792;2022-10-12T01:48:37;8.40;37.70
46492;DHT22;32206;51.446;6.792;2022-10-12T01:51:02;8.40;44.00
46492;DHT22;32206;51.446;6.792;2022-10-12T01:53:43;8.40;51.50
46492;DHT22;32206;51.446;6.792;2022-10-12T02:01:42;8.40;55.20
46492;DHT22;32206;51.446;6.792;2022-10-12T02:04:18;8.40;55.70
46492;DHT22;32206;51.446;6.792;2022-10-12T02:06:52;8.40;61.80
46492;DHT22;32206;51.446;6.792;2022-10-12T02:11:44;8.40;63.40
46492;DHT22;32206;51.446;6.792;2022-10-12T02:14:17;8.40;63.50
46492;DHT22;32206;51.446;6.792;2022-10-12T02:16:50;8.50;57.40
46492;DHT22;32206;51.446;6.792;2022-10-12T02:19:22;8.50;62.70
46492;DHT22;32206;51.446;6.792;2022-10-12T02:21:50;8.40;55.80
46492;DHT22;32206;51.446;6.792;2022-10-12T02:24:19;8.40;52.20
46492;DHT22;32206;51.446;6.792;2022-10-12T02:26:47;8.30;53.40
46492;DHT22;32206;51.446;6.792;2022-10-12T02:29:17;8.30;52.20
46492;DHT22;32206;51.446;6.792;2022-10-12T02:32:06;8.40;45.40
46492;DHT22;32206;51.446;6.792;2022-10-12T02:37:29;8.20;30.50
46492;DHT22;32206;51.446;6.792;2022-10-12T02:40:29;8.20;33.10
46492;DHT22;32206;51.446;6.792;2022-10-12T02:45:35;8.10;27.10
46492;DHT22;32206;51.446;6.792;2022-10-12T02:48:03;8.00;39.40
46492;DHT22;32206;51.446;6.792;2022-10-12T02:50:31;8.00;47.10
46492;DHT22;32206;51.446;6.792;2022-10-12T02:52:57;8.00;45.30
46492;DHT22;32206;51.446;6.792;2022-10-12T02:55:23;8.00;44.90
46492;DHT22;32206;51.446;6.792;2022-10-12T02:57:49;8.30;45.30
46492;DHT22;32206;51.446;6.792;2022-10-12T03:00:15;8.00;46.50
46492;DHT22;32206;51.446;6.792;2022-10-12T03:02:41;8.00;47.20
46492;DHT22;32206;51.446;6.792;2022-10-12T03:05:07;8.00;39.30
46492;DHT22;32206;51.446;6.792;2022-10-12T03:07:32;8.00;42.80
46492;DHT22;32206;51.446;6.792;2022-10-12T03:09:58;8.00;43.20
46492;DHT22;32206;51.446;6.792;2022-10-12T03:12:23;8.10;45.90
46492;DHT22;32206;51.446;6.792;2022-10-12T03:14:49;8.00;50.30
46492;DHT22;32206;51.446;6.792;2022-10-12T03:17:15;8.60;52.50
46492;DHT22;32206;51.446;6.792;2022-10-12T03:19:40;8.00;50.70
46492;DHT22;32206;51.446;6.792;2022-10-12T03:22:06;8.00;53.60
46492;DHT22;32206;51.446;6.792;2022-10-12T03:24:31;8.00;54.90
46492;DHT22;32206;51.446;6.792;2022-10-12T03:26:57;8.00;58.00
46492;DHT22;32206;51.446;6.792;2022-10-12T03:29:23;8.00;59.60
46492;DHT22;32206;51.446;6.792;2022-10-12T03:31:48;8.00;57.70
46492;DHT22;32206;51.446;6.792;2022-10-12T03:34:14;8.00;59.80
46492;DHT22;32206;51.446;6.792;2022-10-12T03:36:39;8.00;62.10
46492;DHT22;32206;51.446;6.792;2022-10-12T03:39:05;8.20;57.00
46492;DHT22;32206;51.446;6.792;2022-10-12T03:41:30;8.00;55.20
46492;DHT22;32206;51.446;6.792;2022-10-12T03:43:56;8.00;56.10
46492;DHT22;32206;51.446;6.792;2022-10-12T03:46:22;8.00;54.70
46492;DHT22;32206;51.446;6.792;2022-10-12T03:48:47;8.00;48.30
46492;DHT22;32206;51.446;6.792;2022-10-12T03:51:13;8.00;41.30
46492;DHT22;32206;51.446;6.792;2022-10-12T03:53:38;7.90;28.60
46492;DHT22;32206;51.446;6.792;2022-10-12T03:56:04;7.90;27.10
46492;DHT22;32206;51.446;6.792;2022-10-12T03:58:30;7.90;23.10
46492;DHT22;32206;51.446;6.792;2022-10-12T04:00:55;8.20;27.80
46492;DHT22;32206;51.446;6.792;2022-10-12T04:03:21;7.80;32.50
46492;DHT22;32206;51.446;6.792;2022-10-12T04:05:57;7.80;44.00
46492;DHT22;32206;51.446;6.792;2022-10-12T04:08:23;7.90;49.70
46492;DHT22;32206;51.446;6.792;2022-10-12T04:10:51;7.90;51.10
46492;DHT22;32206;51.446;6.792;2022-10-12T04:13:17;7.90;51.10
46492;DHT22;32206;51.446;6.792;2022-10-12T04:15:42;8.00;55.20
46492;DHT22;32206;51.446;6.792;2022-10-12T04:18:08;7.90;53.10
46492;DHT22;32206;51.446;6.792;2022-10-12T04:20:33;7.90;56.10
46492;DHT22;32206;51.446;6.792;2022-10-12T04:22:59;7.90;52.50
46492;DHT22;32206;51.446;6.792;2022-10-12T04:25:25;7.90;50.80
46492;DHT22;32206;51.446;6.792;2022-10-12T04:27:50;8.00;53.10
46492;DHT22;32206;51.446;6.792;2022-10-12T04:30:16;8.00;56.60
46492;DHT22;32206;51.446;6.792;2022-10-12T04:32:42;8.00;58.80
46492;DHT22;32206;51.446;6.792;2022-10-12T04:35:07;8.00;58.80
46492;DHT22;32206;51.446;6.792;2022-10-12T04:37:33;8.00;57.30
46492;DHT22;32206;51.446;6.792;2022-10-12T04:39:59;8.00;51.90
46492;DHT22;32206;51.446;6.792;2022-10-12T04:42:24;8.00;39.70
46492;DHT22;32206;51.446;6.792;2022-10-12T04:44:50;8.00;35.90
46492;DHT22;32206;51.446;6.792;2022-10-12T04:47:16;7.90;33.40
46492;DHT22;32206;51.446;6.792;2022-10-12T04:49:41;8.10;34.90
46492;DHT22;32206;51.446;6.792;2022-10-12T04:52:07;8.00;40.60
46492;DHT22;32206;51.446;6.792;2022-10-12T04:54:33;8.00;43.20
46492;DHT22;32206;51.446;6.792;2022-10-12T04:56:59;7.90;47.70
46492;DHT22;32206;51.446;6.792;2022-10-12T04:59:24;8.00;46.60
46492;DHT22;32206;51.446;6.792;2022-10-12T05:01:50;8.00;44.10
46492;DHT22;32206;51.446;6.792;2022-10-12T05:04:15;8.00;40.80
46492;DHT22;32206;51.446;6.792;2022-10-12T05:06:41;7.90;41.90
46492;DHT22;32206;51.446;6.792;2022-10-12T05:09:06;7.90;42.60
46492;DHT22;32206;51.446;6.792;2022-10-12T05:11:32;7.90;41.70
46492;DHT22;32206;51.446;6.792;2022-10-12T05:13:58;7.90;40.30
46492;DHT22;32206;51.446;6.792;2022-10-12T05:16:23;7.90;39.00
46492;DHT22;32206;51.446;6.792;2022-10-12T05:18:49;7.90;44.60
46492;DHT22;32206;51.446;6.792;2022-10-12T05:21:15;7.90;47.20
46492;DHT22;32206;51.446;6.792;2022-10-12T05:23:40;7.90;50.40
46492;DHT22;32206;51.446;6.792;2022-10-12T05:26:06;7.90;51.30
46492;DHT22;32206;51.446;6.792;2022-10-12T05:28:32;7.90;54.90
46492;DHT22;32206;51.446;6.792;2022-10-12T05:30:58;7.90;53.70
46492;DHT22;32206;51.446;6.792;2022-10-12T05:33:23;7.90;51.90
46492;DHT22;32206;51.446;6.792;2022-10-12T05:35:49;8.00;52.90
46492;DHT22;32206;51.446;6.792;2022-10-12T05:38:15;7.90;52.20
46492;DHT22;32206;51.446;6.792;2022-10-12T05:40:40;7.90;49.70
46492;DHT22;32206;51.446;6.792;2022-10-12T05:43:06;7.90;46.90
46492;DHT22;32206;51.446;6.792;2022-10-12T05:45:31;7.80;37.40
46492;DHT22;32206;51.446;6.792;2022-10-12T05:47:57;7.80;36.90
46492;DHT22;32206;51.446;6.792;2022-10-12T05:50:23;7.90;30.80
46492;DHT22;32206;51.446;6.792;2022-10-12T05:52:48;7.80;31.00
46492;DHT22;32206;51.446;6.792;2022-10-12T05:55:14;7.70;29.80
46492;DHT22;32206;51.446;6.792;2022-10-12T05:57:40;7.70;27.50
46492;DHT22;32206;51.446;6.792;2022-10-12T06:00:07;7.70;29.00
46492;DHT22;32206;51.446;6.792;2022-10-12T06:02:34;7.60;35.00
46492;DHT22;32206;51.446;6.792;2022-10-12T06:04:59;7.70;32.40
46492;DHT22;32206;51.446;6.792;2022-10-12T06:07:25;7.60;33.80
46492;DHT22;32206;51.446;6.792;2022-10-12T06:09:51;7.60;36.60
46492;DHT22;32206;51.446;6.792;2022-10-12T06:12:17;7.60;37.60
46492;DHT22;32206;51.446;6.792;2022-10-12T06:14:43;7.60;39.50
46492;DHT22;32206;51.446;6.792;2022-10-12T06:17:09;7.60;38.30
46492;DHT22;32206;51.446;6.792;2022-10-12T06:19:35;7.60;41.40
46492;DHT22;32206;51.446;6.792;2022-10-12T06:22:01;7.60;42.40
46492;DHT22;32206;51.446;6.792;2022-10-12T06:24:27;7.60;48.00
46492;DHT22;32206;51.446;6.792;2022-10-12T06:26:53;8.00;50.10
46492;DHT22;32206;51.446;6.792;2022-10-12T06:29:18;7.70;49.70
46492;DHT22;32206;51.446;6.792;2022-10-12T06:31:47;7.60;52.10
46492;DHT22;32206;51.446;6.792;2022-10-12T06:34:13;7.50;55.50
46492;DHT22;32206;51.446;6.792;2022-10-12T06:36:39;7.60;58.90
46492;DHT22;32206;51.446;6.792;2022-10-12T06:39:04;7.60;60.80
46492;DHT22;32206;51.446;6.792;2022-10-12T06:41:30;7.60;60.40
46492;DHT22;32206;51.446;6.792;2022-10-12T06:43:58;7.60;54.60
46492;DHT22;32206;51.446;6.792;2022-10-12T06:46:24;7.60;48.30
46492;DHT22;32206;51.446;6.792;2022-10-12T06:48:49;7.60;44.10
46492;DHT22;32206;51.446;6.792;2022-10-12T07:12:45;7.90;70.80
46492;DHT22;32206;51.446;6.792;2022-10-12T07:15:11;7.90;71.00
46492;DHT22;32206;51.446;6.792;2022-10-12T07:17:37;8.00;70.10
46492;DHT22;32206;51.446;6.792;2022-10-12T07:20:03;8.00;69.60
46492;DHT22;32206;51.446;6.792;2022-10-12T07:22:29;8.20;65.70
46492;DHT22;32206;51.446;6.792;2022-10-12T07:24:54;8.20;65.80
46492;DHT22;32206;51.446;6.792;2022-10-12T07:27:20;8.30;65.80
46492;DHT22;32206;51.446;6.792;2022-10-12T07:29:46;8.40;62.00
46492;DHT22;32206;51.446;6.792;2022-10-12T07:32:11;8.50;61.20
46492;DHT22;32206;51.446;6.792;2022-10-12T07:34:37;8.60;50.90
46492;DHT22;32206;51.446;6.792;2022-10-12T07:37:03;8.60;47.50
46492;DHT22;32206;51.446;6.792;2022-10-12T07:39:28;8.70;32.00
46492;DHT22;32206;51.446;6.792;2022-10-12T07:41:54;8.80;28.60
46492;DHT22;32206;51.446;6.792;2022-10-12T07:44:20;8.80;28.20
46492;DHT22;32206;51.446;6.792;2022-10-12T07:46:47;8.90;29.30
46492;DHT22;32206;51.446;6.792;2022-10-12T07:49:14;9.00;26.40
46492;DHT22;32206;51.446;6.792;2022-10-12T07:51:41;9.00;23.60
46492;DHT22;32206;51.446;6.792;2022-10-12T07:54:07;9.10;29.00
46492;DHT22;32206;51.446;6.792;2022-10-12T07:56:33;9.10;24.50
46492;DHT22;32206;51.446;6.792;2022-10-12T07:58:58;9.20;24.10
46492;DHT22;32206;51.446;6.792;2022-10-12T08:01:27;9.30;22.50
46492;DHT22;32206;51.446;6.792;2022-10-12T08:03:54;9.40;22.60
46492;DHT22;32206;51.446;6.792;2022-10-12T08:06:22;9.60;20.00
46492;DHT22;32206;51.446;6.792;2022-10-12T08:08:48;9.40;21.20
46492;DHT22;32206;51.446;6.792;2022-10-12T08:11:15;9.50;19.00
46492;DHT22;32206;51.446;6.792;2022-10-12T08:13:41;9.60;15.10
46492;DHT22;32206;51.446;6.792;2022-10-12T08:16:10;9.80;14.10
46492;DHT22;32206;51.446;6.792;2022-10-12T08:18:36;9.80;3.50
46492;DHT22;32206;51.446;6.792;2022-10-12T08:21:07;9.90;1.00
46492;DHT22;32206;51.446;6.792;2022-10-12T08:23:33;10.00;2.40
46492;DHT22;32206;51.446;6.792;2022-10-12T08:25:59;10.20;6.60
46492;DHT22;32206;51.446;6.792;2022-10-12T08:28:25;10.10;7.00
46492;DHT22;32206;51.446;6.792;2022-10-12T08:30:51;10.20;7.00
46492;DHT22;32206;51.446;6.792;2022-10-12T08:33:17;10.20;15.50
46492;DHT22;32206;51.446;6.792;2022-10-12T08:35:44;10.30;10.30
46492;DHT22;32206;51.446;6.792;2022-10-12T08:38:11;10.40;9.60
46492;DHT22;32206;51.446;6.792;2022-10-12T08:41:05;10.50;1.00
46492;DHT22;32206;51.446;6.792;2022-10-12T08:43:55;10.50;1.00
46492;DHT22;32206;51.446;6.792;2022-10-12T08:46:23;10.70;1.00
46492;DHT22;32206;51.446;6.792;2022-10-12T08:51:24;10.70;1.00
46492;DHT22;32206;51.446;6.792;2022-10-12T08:53:55;10.80;1.00
46492;DHT22;32206;51.446;6.792;2022-10-12T08:56:22;10.90;1.00
46492;DHT22;32206;51.446;6.792;2022-10-12T08:58:51;10.90;1.00
46492;DHT22;32206;51.446;6.792;2022-10-12T09:04:16;11.10;99.90
46492;DHT22;32206;51.446;6.792;2022-10-12T09:12:30;11.50;99.90
46492;DHT22;32206;51.446;6.792;2022-10-12T09:15:03;11.60;99.90
46492;DHT22;32206;51.446;6.792;2022-10-12T09:17:35;11.80;99.90
46492;DHT22;32206;51.446;6.792;2022-10-12T09:23:16;12.00;99.90
46492;DHT22;32206;51.446;6.792;2022-10-12T09:25:46;12.00;99.90
46492;DHT22;32206;51.446;6.792;2022-10-12T09:28:22;12.00;99.90
46492;DHT22;32206;51.446;6.792;2022-10-12T09:33:59;12.10;99.90
46492;DHT22;32206;51.446;6.792;2022-10-12T09:36:27;12.20;99.90
46492;DHT22;32206;51.446;6.792;2022-10-12T09:38:56;12.30;99.90
46492;DHT22;32206;51.446;6.792;2022-10-12T09:41:35;12.40;99.90
46492;DHT22;32206;51.446;6.792;2022-10-12T09:44:04;12.40;99.90
46492;DHT22;32206;51.446;6.792;2022-10-12T09:46:47;12.60;99.90
46492;DHT22;32206;51.446;6.792;2022-10-12T09:49:13;12.80;1.00
46492;DHT22;32206;51.446;6.792;2022-10-12T09:51:40;12.70;99.90
46492;DHT22;32206;51.446;6.792;2022-10-12T09:54:05;12.80;1.00
46492;DHT22;32206;51.446;6.792;2022-10-12T09:56:45;12.80;1.00
46492;DHT22;32206;51.446;6.792;2022-10-12T09:59:32;13.00;99.90
46492;DHT22;32206;51.446;6.792;2022-10-12T10:02:17;13.10;1.00
46492;DHT22;32206;51.446;6.792;2022-10-12T10:04:45;13.20;1.00
46492;DHT22;32206;51.446;6.792;2022-10-12T10:07:20;13.40;99.90
46492;DHT22;32206;51.446;6.792;2022-10-12T10:09:48;13.40;99.20
46492;DHT22;32206;51.446;6.792;2022-10-12T10:12:28;13.60;15.10
46492;DHT22;32206;51.446;6.792;2022-10-12T10:14:55;13.70;1.00
46492;DHT22;32206;51.446;6.792;2022-10-12T10:17:30;13.70;1.00
46492;DHT22;32206;51.446;6.792;2022-10-12T10:19:57;13.90;99.90
46492;DHT22;32206;51.446;6.792;2022-10-12T10:22:24;14.00;99.90
46492;DHT22;32206;51.446;6.792;2022-10-12T10:24:53;14.10;99.90
46492;DHT22;32206;51.446;6.792;2022-10-12T10:27:32;14.30;1.00
46492;DHT22;32206;51.446;6.792;2022-10-12T10:32:44;14.50;1.00
46492;DHT22;32206;51.446;6.792;2022-10-12T10:37:43;14.70;99.90
46492;DHT22;32206;51.446;6.792;2022-10-12T10:40:24;14.80;99.90
46492;DHT22;32206;51.446;6.792;2022-10-12T10:42:53;15.00;99.90
46492;DHT22;32206;51.446;6.792;2022-10-12T10:45:28;15.20;1.00
46492;DHT22;32206;51.446;6.792;2022-10-12T10:47:55;15.30;99.90
46492;DHT22;32206;51.446;6.792;2022-10-12T10:52:56;15.70;1.00
46492;DHT22;32206;51.446;6.792;2022-10-12T10:55:30;16.00;91.70
46492;DHT22;32206;51.446;6.792;2022-10-12T10:58:03;16.20;1.00
46492;DHT22;32206;51.446;6.792;2022-10-12T11:00:32;16.40;1.00
46492;DHT22;32206;51.446;6.792;2022-10-12T11:03:22;16.60;99.90
46492;DHT22;32206;51.446;6.792;2022-10-12T11:05:54;16.80;99.90
46492;DHT22;32206;51.446;6.792;2022-10-12T11:08:24;17.00;99.90
46492;DHT22;32206;51.446;6.792;2022-10-12T11:10:58;17.20;99.90
46492;DHT22;32206;51.446;6.792;2022-10-12T11:13:31;17.40;99.90
46492;DHT22;32206;51.446;6.792;2022-10-12T11:16:19;17.60;83.70
46492;DHT22;32206;51.446;6.792;2022-10-12T11:18:57;17.70;54.00
46492;DHT22;32206;51.446;6.792;2022-10-12T11:21:34;17.80;1.00
46492;DHT22;32206;51.446;6.792;2022-10-12T11:24:12;17.90;1.00
46492;DHT22;32206;51.446;6.792;2022-10-12T11:27:02;17.80;1.00
46492;DHT22;32206;51.446;6.792;2022-10-12T11:29:29;17.80;1.20
46492;DHT22;32206;51.446;6.792;2022-10-12T11:32:11;17.80;9.30
46492;DHT22;32206;51.446;6.792;2022-10-12T11:34:50;17.90;1.00
46492;DHT22;32206;51.446;6.792;2022-10-12T11:37:20;18.00;1.00
46492;DHT22;32206;51.446;6.792;2022-10-12T11:39:50;18.20;30.10
46492;DHT22;32206;51.446;6.792;2022-10-12T11:42:30;18.30;1.00
46492;DHT22;32206;51.446;6.792;2022-10-12T11:44:58;18.50;1.00
46492;DHT22;32206;51.446;6.792;2022-10-12T11:47:42;18.60;1.00
46492;DHT22;32206;51.446;6.792;2022-10-12T11:50:33;18.60;1.00
46492;DHT22;32206;51.446;6.792;2022-10-12T11:53:04;18.60;1.00
46492;DHT22;32206;51.446;6.792;2022-10-12T11:58:26;18.50;1.00
46492;DHT22;32206;51.446;6.792;2022-10-12T12:01:04;18.60;1.00
46492;DHT22;32206;51.446;6.792;2022-10-12T12:11:23;18.80;1.00
46492;DHT22;32206;51.446;6.792;2022-10-12T12:13:49;18.90;1.00
46492;DHT22;32206;51.446;6.792;2022-10-12T12:19:13;18.90;1.00
46492;DHT22;32206;51.446;6.792;2022-10-12T12:22:17;18.80;1.00
46492;DHT22;32206;51.446;6.792;2022-10-12T12:30:29;18.40;1.00
46492;DHT22;32206;51.446;6.792;2022-10-12T12:35:57;18.50;1.00
46492;DHT22;32206;51.446;6.792;2022-10-12T12:41:00;18.70;1.00
46492;DHT22;32206;51.446;6.792;2022-10-12T12:45:59;18.90;1.00
46492;DHT22;32206;51.446;6.792;2022-10-12T12:51:16;19.10;1.00
46492;DHT22;32206;51.446;6.792;2022-10-12T12:53:59;19.10;1.00
46492;DHT22;32206;51.446;6.792;2022-10-12T13:04:29;19.30;1.00
46492;DHT22;32206;51.446;6.792;2022-10-12T13:07:10;19.20;99.90
46492;DHT22;32206;51.446;6.792;2022-10-12T13:15:30;19.00;1.00
46492;DHT22;32206;51.446;6.792;2022-10-12T13:18:31;18.90;1.00
46492;DHT22;32206;51.446;6.792;2022-10-12T13:21:04;18.90;1.00
46492;DHT22;32206;51.446;6.792;2022-10-12T13:23:30;18.90;1.00
46492;DHT22;32206;51.446;6.792;2022-10-12T13:26:05;19.00;1.00
46492;DHT22;32206;51.446;6.792;2022-10-12T13:28:31;18.90;1.00
46492;DHT22;32206;51.446;6.792;2022-10-12T13:31:24;18.80;1.00
46492;DHT22;32206;51.446;6.792;2022-10-12T13:34:10;18.70;1.00
46492;DHT22;32206;51.446;6.792;2022-10-12T13:36:57;18.80;1.00
46492;DHT22;32206;51.446;6.792;2022-10-12T13:39:23;18.80;1.00
46492;DHT22;32206;51.446;6.792;2022-10-12T13:41:52;18.90;1.00
46492;DHT22;32206;51.446;6.792;2022-10-12T13:44:27;18.90;1.00
46492;DHT22;32206;51.446;6.792;2022-10-12T13:46:58;18.90;1.00
46492;DHT22;32206;51.446;6.792;2022-10-12T13:49:34;18.90;1.00
46492;DHT22;32206;51.446;6.792;2022-10-12T13:52:01;18.80;1.00
46492;DHT22;32206;51.446;6.792;2022-10-12T13:56:59;19.00;1.00
46492;DHT22;32206;51.446;6.792;2022-10-12T13:59:27;19.00;1.00
46492;DHT22;32206;51.446;6.792;2022-10-12T14:02:00;19.00;1.00
46492;DHT22;32206;51.446;6.792;2022-10-12T14:04:31;18.90;1.00
46492;DHT22;32206;51.446;6.792;2022-10-12T14:07:03;18.80;1.00
46492;DHT22;32206;51.446;6.792;2022-10-12T14:09:41;18.70;1.00
46492;DHT22;32206;51.446;6.792;2022-10-12T14:12:09;18.60;1.00
46492;DHT22;32206;51.446;6.792;2022-10-12T14:14:36;18.60;1.00
46492;DHT22;32206;51.446;6.792;2022-10-12T14:17:03;18.60;1.00
46492;DHT22;32206;51.446;6.792;2022-10-12T14:19:48;18.40;1.00
46492;DHT22;32206;51.446;6.792;2022-10-12T14:22:28;18.30;1.00
46492;DHT22;32206;51.446;6.792;2022-10-12T14:25:17;18.20;11.20
46492;DHT22;32206;51.446;6.792;2022-10-12T14:27:42;18.10;1.00
46492;DHT22;32206;51.446;6.792;2022-10-12T14:30:18;18.00;1.00
46492;DHT22;32206;51.446;6.792;2022-10-12T14:32:45;18.00;28.60
46492;DHT22;32206;51.446;6.792;2022-10-12T14:37:44;18.00;61.40
46492;DHT22;32206;51.446;6.792;2022-10-12T14:40:26;18.00;15.50
46492;DHT22;32206;51.446;6.792;2022-10-12T14:45:38;17.80;65.60
46492;DHT22;32206;51.446;6.792;2022-10-12T14:48:09;17.50;99.90
46492;DHT22;32206;51.446;6.792;2022-10-12T14:50:37;17.70;99.90
46492;DHT22;32206;51.446;6.792;2022-10-12T14:53:04;17.70;99.90
46492;DHT22;32206;51.446;6.792;2022-10-12T14:55:33;17.70;99.90
46492;DHT22;32206;51.446;6.792;2022-10-12T14:57:59;17.70;99.90
46492;DHT22;32206;51.446;6.792;2022-10-12T15:00:31;17.70;99.90
46492;DHT22;32206;51.446;6.792;2022-10-12T15:02:58;17.70;99.90
46492;DHT22;32206;51.446;6.792;2022-10-12T15:05:25;17.80;99.90
46492;DHT22;32206;51.446;6.792;2022-10-12T15:07:53;18.00;99.90
46492;DHT22;32206;51.446;6.792;2022-10-12T15:10:20;18.10;99.90
46492;DHT22;32206;51.446;6.792;2022-10-12T15:12:46;18.20;99.90
46492;DHT22;32206;51.446;6.792;2022-10-12T15:17:38;18.40;19.40
46492;DHT22;32206;51.446;6.792;2022-10-12T15:20:04;18.30;68.70
46492;DHT22;32206;51.446;6.792;2022-10-12T15:22:29;18.40;18.10
46492;DHT22;32206;51.446;6.792;2022-10-12T15:24:58;18.40;68.10
46492;DHT22;32206;51.446;6.792;2022-10-12T15:27:24;18.40;99.90
46492;DHT22;32206;51.446;6.792;2022-10-12T15:29:49;18.50;5.20
46492;DHT22;32206;51.446;6.792;2022-10-12T15:32:17;18.60;1.00
46492;DHT22;32206;51.446;6.792;2022-10-12T15:34:43;18.70;13.40
46492;DHT22;32206;51.446;6.792;2022-10-12T15:37:09;18.80;93.70
46492;DHT22;32206;51.446;6.792;2022-10-12T15:39:35;18.70;23.40
46492;DHT22;32206;51.446;6.792;2022-10-12T15:42:01;18.50;47.30
46492;DHT22;32206;51.446;6.792;2022-10-12T15:44:27;18.30;99.90
46492;DHT22;32206;51.446;6.792;2022-10-12T15:46:55;18.20;99.90
46492;DHT22;32206;51.446;6.792;2022-10-12T15:49:22;18.10;99.90
46492;DHT22;32206;51.446;6.792;2022-10-12T15:51:52;18.00;99.90
46492;DHT22;32206;51.446;6.792;2022-10-12T15:54:18;17.90;99.90
46492;DHT22;32206;51.446;6.792;2022-10-12T15:56:44;17.70;99.90
46492;DHT22;32206;51.446;6.792;2022-10-12T15:59:29;17.70;99.90
46492;DHT22;32206;51.446;6.792;2022-10-12T16:02:02;17.60;1.00
46492;DHT22;32206;51.446;6.792;2022-10-12T16:04:30;17.50;1.00
46492;DHT22;32206;51.446;6.792;2022-10-12T16:10:08;17.50;73.20
46492;DHT22;32206;51.446;6.792;2022-10-12T16:20:08;17.30;1.00
46492;DHT22;32206;51.446;6.792;2022-10-12T16:22:37;17.20;99.90
46492;DHT22;32206;51.446;6.792;2022-10-12T16:25:05;17.10;78.30
46492;DHT22;32206;51.446;6.792;2022-10-12T16:27:31;17.10;99.90
46492;DHT22;32206;51.446;6.792;2022-10-12T16:29:57;17.30;1.00
46492;DHT22;32206;51.446;6.792;2022-10-12T16:32:23;17.00;1.00
46492;DHT22;32206;51.446;6.792;2022-10-12T16:34:48;17.00;99.90
46492;DHT22;32206;51.446;6.792;2022-10-12T16:37:15;16.90;99.90
46492;DHT22;32206;51.446;6.792;2022-10-12T16:39:40;16.90;99.90
46492;DHT22;32206;51.446;6.792;2022-10-12T16:42:06;16.90;99.90
46492;DHT22;32206;51.446;6.792;2022-10-12T16:44:32;16.90;99.90
46492;DHT22;32206;51.446;6.792;2022-10-12T16:46:57;16.80;1.00
46492;DHT22;32206;51.446;6.792;2022-10-12T16:49:24;16.70;1.00
46492;DHT22;32206;51.446;6.792;2022-10-12T16:51:49;16.70;1.00
46492;DHT22;32206;51.446;6.792;2022-10-12T16:54:15;16.60;99.90
46492;DHT22;32206;51.446;6.792;2022-10-12T16:56:41;16.50;1.00
46492;DHT22;32206;51.446;6.792;2022-10-12T16:59:06;16.50;99.90
46492;DHT22;32206;51.446;6.792;2022-10-12T17:01:32;16.40;99.90
46492;DHT22;32206;51.446;6.792;2022-10-12T17:03:57;16.30;13.40
46492;DHT22;32206;51.446;6.792;2022-10-12T17:06:29;16.50;99.90
46492;DHT22;32206;51.446;6.792;2022-10-12T17:08:59;16.20;1.00
46492;DHT22;32206;51.446;6.792;2022-10-12T17:11:25;16.20;99.90
46492;DHT22;32206;51.446;6.792;2022-10-12T17:13:51;16.10;1.00
46492;DHT22;32206;51.446;6.792;2022-10-12T17:16:19;16.00;1.00
46492;DHT22;32206;51.446;6.792;2022-10-12T17:19:03;16.00;99.90
46492;DHT22;32206;51.446;6.792;2022-10-12T17:21:29;15.90;1.00
46492;DHT22;32206;51.446;6.792;2022-10-12T17:23:58;15.90;47.60
46492;DHT22;32206;51.446;6.792;2022-10-12T17:26:25;15.80;99.90
46492;DHT22;32206;51.446;6.792;2022-10-12T17:28:51;15.70;99.90
46492;DHT22;32206;51.446;6.792;2022-10-12T17:31:16;15.60;1.00
46492;DHT22;32206;51.446;6.792;2022-10-12T17:33:42;15.50;1.00
46492;DHT22;32206;51.446;6.792;2022-10-12T17:36:09;15.50;14.40
46492;DHT22;32206;51.446;6.792;2022-10-12T17:38:35;15.50;71.90
46492;DHT22;32206;51.446;6.792;2022-10-12T17:41:02;15.70;99.90
46492;DHT22;32206;51.446;6.792;2022-10-12T17:43:29;15.40;99.90
46492;DHT22;32206;51.446;6.792;2022-10-12T17:45:54;15.40;99.90
46492;DHT22;32206;51.446;6.792;2022-10-12T17:48:20;15.50;99.90
46492;DHT22;32206;51.446;6.792;2022-10-12T17:50:46;15.20;99.90
46492;DHT22;32206;51.446;6.792;2022-10-12T17:53:11;15.10;99.90
46492;DHT22;32206;51.446;6.792;2022-10-12T17:55:37;15.00;99.90
46492;DHT22;32206;51.446;6.792;2022-10-12T17:58:03;15.20;99.90
46492;DHT22;32206;51.446;6.792;2022-10-12T18:00:28;15.00;99.90
46492;DHT22;32206;51.446;6.792;2022-10-12T18:02:54;15.10;99.90
46492;DHT22;32206;51.446;6.792;2022-10-12T18:05:20;14.90;99.90
46492;DHT22;32206;51.446;6.792;2022-10-12T18:07:46;14.80;99.90
46492;DHT22;32206;51.446;6.792;2022-10-12T18:10:11;14.80;99.90
46492;DHT22;32206;51.446;6.792;2022-10-12T18:12:37;15.00;1.00
46492;DHT22;32206;51.446;6.792;2022-10-12T18:15:03;14.70;99.90
46492;DHT22;32206;51.446;6.792;2022-10-12T18:17:32;14.60;1.00